Time;durP1;ratioP1;P1;durP2;ratioP2;P2;SDS_P1;SDS_P2;PMS_P1;PMS_P2;Temp;Humidity;BMP_temperature;BMP_pressure;BME280_temperature;BME280_humidity;BME280_pressure;Samples;Min_cycle;Max_cycle;Signal;HPM_P1;HPM_P2
2022/01/30 00:00:33;;;;;;;9.18;4.53;;;;;;;5.80;85.47;100806.13;5000425;28;20465;-80
2022/01/30 00:03:00;;;;;;;9.05;4.50;;;;;;;5.81;85.57;100802.59;4987649;28;20374;-80
2022/01/30 00:05:28;;;;;;;6.20;4.22;;;;;;;5.86;85.25;100800.56;4982404;28;20156;-80
2022/01/30 00:07:55;;;;;;;9.73;4.72;;;;;;;5.82;85.33;100799.00;4999833;28;20452;-79
2022/01/30 00:10:22;;;;;;;9.80;4.28;;;;;;;5.80;85.52;100808.78;4998017;28;20100;-80
2022/01/30 00:12:53;;;;;;;7.55;4.05;;;;;;;5.80;85.62;100824.59;4970481;28;20049;-80
2022/01/30 00:15:33;;;;;;;8.18;4.40;;;;;;;5.79;85.72;100825.53;4969482;28;20421;-79
2022/01/30 00:18:11;;;;;;;10.23;4.25;;;;;;;5.82;85.79;100820.09;4996944;28;20049;-80
2022/01/30 00:20:41;;;;;;;8.20;3.90;;;;;;;5.82;85.60;100820.94;4998870;28;20133;-79
2022/01/30 00:25:46;;;;;;;11.35;4.38;;;;;;;5.86;85.60;100819.00;5002450;28;20057;-79
2022/01/30 00:28:14;;;;;;;12.98;4.60;;;;;;;5.87;85.57;100816.28;4983314;28;20436;-79
2022/01/30 00:30:41;;;;;;;9.40;3.92;;;;;;;5.90;85.86;100811.78;5002947;28;20033;-79
2022/01/30 00:33:09;;;;;;;13.32;4.90;;;;;;;5.90;85.77;100814.41;4985049;28;20049;-79
2022/01/30 00:35:36;;;;;;;11.63;3.97;;;;;;;5.91;85.49;100821.41;5001202;28;20357;-79
2022/01/30 00:38:07;;;;;;;7.13;3.58;;;;;;;5.92;85.69;100823.09;4983927;28;20413;-79
2022/01/30 00:40:35;;;;;;;11.05;4.75;;;;;;;5.94;85.80;100824.75;4963391;28;20046;-79
2022/01/30 00:43:04;;;;;;;10.07;4.20;;;;;;;5.95;85.93;100825.59;5016820;28;20052;-79
2022/01/30 00:45:33;;;;;;;9.55;5.05;;;;;;;5.95;85.97;100837.00;4973712;28;20041;-80
2022/01/30 00:48:00;;;;;;;3.45;2.33;;;;;;;6.07;85.71;100828.44;5003151;28;20049;-79
2022/01/30 00:50:27;;;;;;;4.60;2.45;;;;;;;5.97;86.35;100839.56;4996207;28;20041;-80
2022/01/30 00:52:55;;;;;;;2.45;1.77;;;;;;;5.98;86.14;100843.88;4983502;28;20046;-79
2022/01/30 00:55:26;;;;;;;3.80;1.92;;;;;;;5.97;85.98;100832.50;4993278;28;20057;-80
2022/01/30 00:57:59;;;;;;;2.58;1.77;;;;;;;5.96;85.95;100824.69;4996407;28;20525;-79
2022/01/30 01:00:27;;;;;;;3.80;1.90;;;;;;;6.02;86.21;100832.25;4972433;28;20669;-79
2022/01/30 01:02:53;;;;;;;3.58;2.08;;;;;;;6.03;86.30;100841.84;4985905;28;20053;-79
2022/01/30 01:05:21;;;;;;;4.50;1.95;;;;;;;6.03;86.09;100837.47;4984094;28;20407;-80
2022/01/30 01:07:51;;;;;;;3.47;2.20;;;;;;;6.08;86.03;100832.78;5012979;28;20132;-79
2022/01/30 01:10:44;;;;;;;4.25;2.33;;;;;;;6.06;86.14;100828.53;5008233;28;20053;-79
2022/01/30 01:24:06;;;;;;;5.18;2.72;;;;;;;6.04;86.48;100823.31;4988481;28;20041;-79
2022/01/30 01:26:35;;;;;;;5.38;3.22;;;;;;;6.04;86.32;100825.97;4985409;28;20724;-82
2022/01/30 01:29:03;;;;;;;6.90;3.17;;;;;;;6.07;86.31;100830.22;4990602;28;20041;-80
2022/01/30 01:31:30;;;;;;;6.00;3.80;;;;;;;6.08;86.23;100835.44;4994799;28;20133;-79
2022/01/30 01:34:23;;;;;;;4.40;3.20;;;;;;;6.11;86.26;100836.16;5002630;28;20513;-79
2022/01/30 01:36:49;;;;;;;5.20;2.90;;;;;;;6.09;86.36;100831.00;4942211;28;20070;-80
2022/01/30 01:39:16;;;;;;;5.82;4.00;;;;;;;6.11;86.23;100823.88;5018492;28;20496;-80
2022/01/30 01:41:43;;;;;;;6.22;3.80;;;;;;;6.11;86.31;100826.50;4989436;28;20489;-79
2022/01/30 01:44:15;;;;;;;10.38;4.30;;;;;;;6.10;86.22;100827.41;5006159;28;20049;-79
2022/01/30 01:46:43;;;;;;;6.70;3.85;;;;;;;6.11;86.67;100836.16;5004897;28;20440;-79
2022/01/30 01:49:18;;;;;;;6.50;3.83;;;;;;;6.14;86.49;100828.97;4988326;28;20045;-80
2022/01/30 01:51:49;;;;;;;8.45;3.65;;;;;;;6.15;86.58;100835.94;4988832;28;20049;-80
2022/01/30 01:54:17;;;;;;;8.50;4.60;;;;;;;6.14;86.63;100831.59;4986438;28;20041;-79
2022/01/30 01:56:43;;;;;;;7.75;3.45;;;;;;;6.17;86.65;100831.44;4986900;28;20057;-80
2022/01/30 01:59:22;;;;;;;8.20;4.03;;;;;;;6.17;86.68;100823.53;4971033;28;20140;-80
2022/01/30 02:02:04;;;;;;;9.10;3.90;;;;;;;6.17;86.75;100823.53;4970565;28;20041;-79
2022/01/30 02:04:31;;;;;;;7.38;3.63;;;;;;;6.21;86.86;100821.59;4988569;28;20045;-79
2022/01/30 02:07:23;;;;;;;6.78;3.58;;;;;;;6.19;86.93;100819.03;4987465;28;20498;-79
2022/01/30 02:09:46;;;;;;;8.73;4.18;;;;;;;6.16;86.83;100807.81;4958975;28;20042;-79
2022/01/30 02:12:20;;;;;;;6.65;3.85;;;;;;;6.18;86.82;100805.91;4987676;28;20048;-80
2022/01/30 02:25:57;;;;;;;7.63;4.20;;;;;;;6.19;86.77;100794.44;4986452;28;20041;-79
2022/01/30 02:28:26;;;;;;;;;;;;;;;6.00;87.12;100797.22;4972212;28;20042;-80
2022/01/30 02:31:10;;;;;;;9.90;4.45;;;;;;;6.16;87.05;100803.38;4998819;28;19940;-80
2022/01/30 02:33:39;;;;;;;11.40;5.35;;;;;;;6.20;86.88;100796.13;4989145;28;20056;-79
2022/01/30 02:36:06;;;;;;;13.05;4.38;;;;;;;6.23;86.83;100801.22;4988536;28;20046;-80
2022/01/30 02:38:32;;;;;;;8.65;4.07;;;;;;;6.22;86.79;100804.81;5000373;28;20636;-79
2022/01/30 02:40:59;;;;;;;7.50;4.30;;;;;;;6.23;86.75;100803.88;5006779;28;20072;-80
2022/01/30 02:43:35;;;;;;;10.50;4.72;;;;;;;6.24;86.93;100813.50;4989259;28;20053;-80
2022/01/30 02:49:13;;;;;;;10.20;4.90;;;;;;;6.18;86.76;100816.44;5015722;28;20046;-79
2022/01/30 02:51:35;;;;;;;9.20;4.22;;;;;;;6.25;86.83;100831.84;5008274;28;20099;-79
2022/01/30 02:54:05;;;;;;;9.70;5.07;;;;;;;6.26;86.66;100833.59;4982020;28;20042;-79
2022/01/30 02:56:37;;;;;;;9.85;4.25;;;;;;;6.27;86.78;100822.09;4980372;28;20367;-81
2022/01/30 02:59:04;;;;;;;9.85;4.95;;;;;;;6.25;87.06;100828.38;5006217;28;20053;-79
2022/01/30 03:01:31;;;;;;;15.52;4.93;;;;;;;6.26;86.78;100827.47;4982273;28;20045;-79
2022/01/30 03:03:58;;;;;;;10.20;5.03;;;;;;;6.28;86.75;100833.47;5001540;28;20076;-80
2022/01/30 03:06:26;;;;;;;10.95;5.07;;;;;;;6.29;86.58;100836.03;5003557;28;20052;-79
2022/01/30 03:08:53;;;;;;;7.43;4.22;;;;;;;6.30;86.76;100843.00;5003412;28;20056;-80
2022/01/30 03:11:20;;;;;;;8.18;4.05;;;;;;;6.29;87.01;100840.47;5003896;28;20061;-79
2022/01/30 03:13:47;;;;;;;8.52;4.43;;;;;;;6.31;86.95;100838.59;4984957;28;20050;-79
2022/01/30 03:16:14;;;;;;;10.90;5.72;;;;;;;6.30;87.05;100840.38;5001922;28;20083;-80
2022/01/30 03:18:41;;;;;;;8.68;5.18;;;;;;;6.36;86.66;100838.34;4987454;28;20056;-80
2022/01/30 03:21:08;;;;;;;10.68;4.57;;;;;;;6.31;86.93;100841.25;5003668;28;20038;-80
2022/01/30 03:23:37;;;;;;;8.77;4.03;;;;;;;6.33;86.64;100836.72;4998685;28;20060;-80
2022/01/30 03:26:05;;;;;;;8.70;4.30;;;;;;;6.34;86.70;100846.34;4987641;28;20508;-80
2022/01/30 03:28:45;;;;;;;9.15;4.25;;;;;;;6.32;86.50;100837.66;4972197;28;20045;-80
2022/01/30 03:31:24;;;;;;;8.82;5.22;;;;;;;6.33;86.72;100852.53;4985145;28;20520;-79
2022/01/30 03:33:51;;;;;;;7.60;4.60;;;;;;;6.31;86.86;100849.16;5003630;28;20426;-79
2022/01/30 03:36:25;;;;;;;12.55;5.35;;;;;;;6.34;86.48;100854.25;4997580;28;20063;-80
2022/01/30 03:38:52;;;;;;;8.32;5.00;;;;;;;6.34;86.62;100859.53;5001055;28;20469;-80
2022/01/30 03:41:19;;;;;;;8.40;4.65;;;;;;;6.36;86.63;100856.78;4981712;28;20524;-79
2022/01/30 03:43:46;;;;;;;9.05;5.05;;;;;;;6.36;86.49;100846.25;5003271;28;20038;-79
2022/01/30 03:46:18;;;;;;;8.25;4.70;;;;;;;6.35;86.13;100852.47;4987310;28;20136;-80
2022/01/30 03:49:05;;;;;;;12.48;5.03;;;;;;;6.34;86.36;100851.63;4986220;28;20041;-80
2022/01/30 03:51:39;;;;;;;8.57;4.57;;;;;;;6.36;85.96;100849.75;4984855;28;20045;-80
2022/01/30 03:54:29;;;;;;;7.55;4.22;;;;;;;6.36;86.27;100857.69;5012959;28;20045;-80
2022/01/30 03:56:55;;;;;;;8.27;4.60;;;;;;;6.38;86.07;100870.75;4978870;28;20734;-80
2022/01/30 03:59:26;;;;;;;9.32;4.50;;;;;;;6.35;85.89;100869.16;4988787;28;20041;-80
2022/01/30 04:01:53;;;;;;;8.70;5.30;;;;;;;6.36;86.17;100881.41;5002585;28;20045;-79
2022/01/30 04:04:22;;;;;;;10.45;4.70;;;;;;;6.36;85.92;100885.81;5003020;28;20140;-80
2022/01/30 04:06:49;;;;;;;10.57;5.22;;;;;;;6.37;85.83;100887.53;4996854;28;20467;-80
2022/01/30 04:09:41;;;;;;;15.75;4.88;;;;;;;6.33;85.87;100884.19;4958625;28;20041;-79
2022/01/30 04:12:29;;;;;;;7.85;4.45;;;;;;;6.32;85.89;100885.16;4988722;28;20079;-80
2022/01/30 04:15:06;;;;;;;9.75;4.70;;;;;;;6.32;85.92;100879.88;4974376;28;20041;-80
2022/01/30 04:17:50;;;;;;;13.70;4.78;;;;;;;6.33;85.71;100892.09;4967688;28;20048;-80
2022/01/30 04:20:39;;;;;;;12.75;5.22;;;;;;;6.34;85.93;100877.16;4997207;28;20132;-79
2022/01/30 04:23:17;;;;;;;10.13;4.57;;;;;;;6.34;85.96;100872.72;4980004;28;20068;-79
2022/01/30 04:26:05;;;;;;;10.50;4.40;;;;;;;6.34;85.87;100879.78;4958965;28;20045;-80
2022/01/30 04:28:34;;;;;;;15.93;4.95;;;;;;;6.35;85.81;100881.50;5001863;28;20076;-80
2022/01/30 04:31:19;;;;;;;11.60;5.18;;;;;;;6.34;85.65;100885.06;4968970;28;20060;-81
2022/01/30 04:33:52;;;;;;;10.38;4.38;;;;;;;6.34;85.35;100883.28;4995664;28;20100;-80
2022/01/30 04:36:56;;;;;;;8.60;3.95;;;;;;;6.34;85.39;100878.00;4930496;28;20050;-80
2022/01/30 05:01:01;;;;;;;10.30;4.57;;;;;;;6.29;85.30;100890.59;4957265;28;20046;-79
2022/01/30 05:09:44;;;;;;;11.77;4.10;;;;;;;6.30;85.24;100905.47;4914705;28;20053;-80
2022/01/30 05:12:22;;;;;;;7.35;3.55;;;;;;;6.31;85.13;100915.09;5006123;28;20412;-80
2022/01/30 05:15:18;;;;;;;9.48;4.07;;;;;;;6.29;85.23;100915.19;4957421;28;20085;-80
2022/01/30 05:18:25;;;;;;;7.32;3.05;;;;;;;6.26;84.72;100925.06;4991568;28;20087;-80
2022/01/30 05:21:01;;;;;;;10.10;4.32;;;;;;;6.32;84.83;100923.88;5001127;28;20057;-79
2022/01/30 05:23:38;;;;;;;10.75;4.38;;;;;;;6.29;84.68;100928.38;4958302;28;20505;-80
2022/01/30 05:26:12;;;;;;;12.27;4.68;;;;;;;6.30;85.02;100930.06;5005186;28;20158;-80
2022/01/30 05:28:51;;;;;;;12.82;4.13;;;;;;;6.33;85.06;100925.56;5012622;28;20396;-80
2022/01/30 05:31:28;;;;;;;12.63;4.03;;;;;;;6.33;85.17;100933.47;5002725;28;20049;-81
2022/01/30 05:34:13;;;;;;;16.48;3.47;;;;;;;6.33;85.03;100942.22;4976396;28;20180;-80
2022/01/30 05:36:52;;;;;;;12.68;4.13;;;;;;;6.32;84.84;100947.59;4987775;28;20052;-80
2022/01/30 05:39:38;;;;;;;17.27;3.90;;;;;;;6.35;84.87;100955.34;4959329;28;20052;-79
2022/01/30 05:42:29;;;;;;;8.63;3.35;;;;;;;6.34;84.77;100964.22;4967029;28;20554;-80
2022/01/30 05:45:18;;;;;;;19.58;4.03;;;;;;;6.32;85.02;100977.47;4976591;28;20128;-80
2022/01/30 05:48:09;;;;;;;16.80;4.80;;;;;;;6.33;84.63;100973.88;4968596;28;20366;-80
2022/01/30 05:50:52;;;;;;;13.23;3.80;;;;;;;6.33;84.60;100979.16;4957777;28;20042;-80
2022/01/30 05:53:27;;;;;;;9.32;3.53;;;;;;;6.34;84.77;100988.78;4978770;28;20045;-79
2022/01/30 05:56:03;;;;;;;12.82;4.32;;;;;;;6.34;84.58;100996.72;4995204;28;20057;-80
2022/01/30 05:58:30;;;;;;;9.20;3.70;;;;;;;6.34;84.48;100999.34;5006990;28;20418;-80
2022/01/30 06:01:17;;;;;;;19.17;3.90;;;;;;;6.34;84.34;101012.53;5018433;28;20037;-80
2022/01/30 06:03:43;;;;;;;14.52;4.53;;;;;;;6.35;84.34;101013.38;4985483;28;20045;-80
2022/01/30 06:06:10;;;;;;;17.73;4.90;;;;;;;6.36;84.26;101015.06;4985785;28;20445;-80
2022/01/30 06:08:42;;;;;;;20.27;4.05;;;;;;;6.35;83.38;101019.50;4988171;28;20448;-80
2022/01/30 06:11:10;;;;;;;16.48;4.13;;;;;;;6.36;82.89;101017.72;5006298;28;20728;-79
2022/01/30 06:13:37;;;;;;;14.13;3.50;;;;;;;6.36;82.93;101017.72;5006567;28;20045;-80
2022/01/30 06:16:04;;;;;;;13.45;3.42;;;;;;;6.35;83.35;101011.59;4964243;28;20050;-80
2022/01/30 06:18:32;;;;;;;12.73;3.95;;;;;;;6.35;83.34;101019.50;4989722;28;20046;-80
2022/01/30 06:21:18;;;;;;;9.80;3.58;;;;;;;6.34;83.39;101025.72;4972274;28;20049;-80
2022/01/30 06:23:49;;;;;;;16.88;3.80;;;;;;;6.35;83.40;101031.84;4992091;28;20068;-79
2022/01/30 06:26:34;;;;;;;15.85;3.80;;;;;;;6.33;83.47;101037.19;4983709;28;20045;-79
2022/01/30 06:29:33;;;;;;;24.20;4.95;;;;;;;6.33;83.11;101033.72;4904546;28;20045;-79
2022/01/30 06:32:19;;;;;;;11.23;3.90;;;;;;;6.31;82.95;101025.91;4971592;28;20417;-79
2022/01/30 06:35:09;;;;;;;23.00;3.72;;;;;;;6.29;82.95;101023.31;4941891;28;20048;-79
2022/01/30 06:38:09;;;;;;;18.08;4.60;;;;;;;6.29;81.50;101022.47;4966387;28;20122;-79
2022/01/30 06:41:01;;;;;;;29.27;4.28;;;;;;;6.25;80.99;101013.00;4965941;28;20046;-79
2022/01/30 06:43:46;;;;;;;17.35;4.18;;;;;;;6.25;81.25;101013.84;4983051;28;20049;-79
2022/01/30 06:46:32;;;;;;;25.10;4.07;;;;;;;6.26;81.45;101017.38;4960351;28;20037;-79
2022/01/30 06:49:18;;;;;;;18.52;3.78;;;;;;;6.25;81.52;101020.91;4972825;28;20053;-79
2022/01/30 06:52:09;;;;;;;11.57;3.08;;;;;;;6.23;81.42;101028.94;4925539;28;20053;-79
2022/01/30 06:54:54;;;;;;;23.90;3.83;;;;;;;6.22;80.82;101043.03;4976274;28;20042;-79
2022/01/30 06:58:00;;;;;;;19.48;4.88;;;;;;;6.19;80.91;101043.19;4858363;28;20055;-79
2022/01/30 07:00:45;;;;;;;25.33;4.38;;;;;;;6.19;80.39;101056.38;4987385;28;20078;-81
2022/01/30 07:03:30;;;;;;;21.55;3.70;;;;;;;6.17;80.54;101065.31;4953666;28;20052;-79
2022/01/30 07:06:32;;;;;;;21.13;4.15;;;;;;;6.15;80.50;101070.63;4936372;28;20714;-79
2022/01/30 07:08:59;;;;;;;24.27;5.25;;;;;;;6.16;80.54;101077.63;4920978;28;20564;-78
2022/01/30 07:11:26;;;;;;;20.95;5.20;;;;;;;6.16;80.74;101084.69;4925334;28;20051;-79
2022/01/30 07:13:52;;;;;;;24.08;4.00;;;;;;;6.15;80.43;101075.91;4932479;28;20215;-78
2022/01/30 07:16:19;;;;;;;30.48;7.00;;;;;;;6.14;80.02;101079.50;4932581;28;20047;-79
2022/01/30 07:18:46;;;;;;;15.55;5.05;;;;;;;6.12;80.18;101089.25;4906639;29;20047;-79
2022/01/30 07:21:15;;;;;;;20.55;4.85;;;;;;;6.13;80.12;101090.09;4910605;28;20671;-79
2022/01/30 07:23:42;;;;;;;26.35;5.35;;;;;;;6.12;80.10;101098.97;4923916;28;20039;-79
2022/01/30 07:26:09;;;;;;;35.60;7.55;;;;;;;6.11;80.11;101113.94;4897754;28;20074;-79
2022/01/30 07:28:36;;;;;;;29.15;5.35;;;;;;;6.11;80.30;101118.34;4902317;28;20055;-80
2022/01/30 07:31:02;;;;;;;18.10;5.03;;;;;;;6.09;79.84;101115.78;4902918;28;20039;-80
2022/01/30 07:33:29;;;;;;;19.92;5.15;;;;;;;6.09;80.14;101118.44;4919827;28;20044;-79
2022/01/30 07:36:00;;;;;;;29.10;5.60;;;;;;;6.06;79.67;101108.88;4957768;28;20050;-80
2022/01/30 07:38:27;;;;;;;21.73;6.63;;;;;;;6.09;79.75;101121.06;4986505;28;20167;-80
2022/01/30 07:40:54;;;;;;;27.48;8.60;;;;;;;6.09;80.05;101126.34;4982648;28;20127;-79
2022/01/30 07:43:21;;;;;;;20.17;5.75;;;;;;;6.11;80.19;101131.50;4988055;28;20056;-79
2022/01/30 07:45:55;;;;;;;35.33;10.43;;;;;;;6.11;80.12;101135.03;4987358;28;20038;-79
2022/01/30 07:48:22;;;;;;;35.30;9.35;;;;;;;6.12;80.30;101141.16;4967018;28;20057;-79
2022/01/30 07:50:48;;;;;;;27.35;7.90;;;;;;;6.12;80.23;101151.69;4980789;28;20132;-79
2022/01/30 07:53:15;;;;;;;21.15;7.13;;;;;;;6.11;80.13;101145.59;5000013;28;20460;-79
2022/01/30 07:55:42;;;;;;;23.30;6.65;;;;;;;6.13;80.32;101143.72;4982514;28;20037;-79
2022/01/30 07:58:10;;;;;;;34.53;7.85;;;;;;;6.13;80.16;101138.47;4997482;28;20089;-79
2022/01/30 08:00:38;;;;;;;21.40;5.50;;;;;;;6.15;80.18;101135.72;4969022;28;20090;-79
2022/01/30 08:03:05;;;;;;;26.05;9.50;;;;;;;6.15;80.25;101130.44;4983686;28;20045;-79
2022/01/30 08:05:32;;;;;;;27.88;7.78;;;;;;;6.16;80.08;101125.13;4984930;28;20072;-80
2022/01/30 08:07:59;;;;;;;25.10;4.88;;;;;;;6.18;80.06;101114.47;4972117;28;20603;-80
2022/01/30 08:10:25;;;;;;;23.40;4.82;;;;;;;6.18;79.88;101112.72;5003857;28;20041;-80
2022/01/30 08:12:52;;;;;;;27.48;5.63;;;;;;;6.19;80.12;101101.22;4989115;28;20042;-79
2022/01/30 08:15:19;;;;;;;25.52;5.28;;;;;;;6.21;79.83;101103.78;4993866;28;20449;-79
2022/01/30 08:17:47;;;;;;;18.80;4.68;;;;;;;6.23;80.08;101089.59;4998629;28;20042;-80
2022/01/30 08:20:14;;;;;;;22.33;5.25;;;;;;;6.25;79.45;101095.63;5003312;28;20118;-79
2022/01/30 08:22:49;;;;;;;28.48;7.25;;;;;;;6.22;78.72;101090.50;5004056;28;20128;-79
2022/01/30 08:25:17;;;;;;;41.28;7.63;;;;;;;6.25;78.96;101082.44;4987338;28;20405;-79
2022/01/30 08:27:44;;;;;;;20.05;4.10;;;;;;;6.26;78.79;101088.59;4986673;28;20045;-80
2022/01/30 08:30:11;;;;;;;26.27;5.10;;;;;;;6.28;78.78;101087.56;4986658;28;20444;-79
2022/01/30 08:32:43;;;;;;;18.02;4.13;;;;;;;6.24;78.53;101074.63;5004189;28;20475;-79
2022/01/30 08:35:12;;;;;;;22.38;4.20;;;;;;;6.28;78.67;101090.22;5005861;28;20053;-79
2022/01/30 08:37:39;;;;;;;17.95;3.85;;;;;;;6.30;78.46;101084.84;5005750;28;20057;-79
2022/01/30 08:40:09;;;;;;;24.63;5.32;;;;;;;6.30;78.26;101093.59;4990554;28;20042;-79
2022/01/30 08:42:36;;;;;;;20.33;3.70;;;;;;;6.32;77.78;101088.25;5013705;28;20405;-80
2022/01/30 08:45:04;;;;;;;25.23;4.18;;;;;;;6.34;77.62;101069.72;5016672;28;20548;-79
2022/01/30 08:47:36;;;;;;;15.75;3.65;;;;;;;6.31;77.60;101078.66;4974979;28;20105;-79
2022/01/30 08:50:04;;;;;;;36.40;4.63;;;;;;;6.32;77.41;101079.50;4987041;28;20378;-79
2022/01/30 08:52:32;;;;;;;24.23;4.82;;;;;;;6.32;77.51;101079.50;4987522;28;20037;-79
2022/01/30 08:54:59;;;;;;;23.45;4.82;;;;;;;6.32;77.57;101067.16;5001407;28;20056;-80
2022/01/30 08:57:26;;;;;;;15.20;3.55;;;;;;;6.33;77.16;101068.84;5015033;28;20058;-79
2022/01/30 08:59:54;;;;;;;16.15;2.92;;;;;;;6.34;77.29;101064.47;4999644;28;20045;-79
2022/01/30 09:02:22;;;;;;;19.88;4.03;;;;;;;6.35;77.08;101059.09;4987803;28;20056;-79
2022/01/30 09:04:49;;;;;;;24.25;4.00;;;;;;;6.33;75.78;101079.41;5001503;28;20041;-79
2022/01/30 09:07:17;;;;;;;30.05;4.57;;;;;;;6.31;74.96;101076.00;4988419;28;20615;-79
2022/01/30 09:09:44;;;;;;;24.33;3.58;;;;;;;6.35;75.05;101079.34;4996727;28;20057;-79
2022/01/30 09:12:11;;;;;;;20.27;3.50;;;;;;;6.30;74.25;101083.06;5004349;28;20045;-80
2022/01/30 09:14:40;;;;;;;26.73;4.68;;;;;;;6.33;74.50;101078.56;5009094;28;20049;-79
2022/01/30 09:17:12;;;;;;;26.60;4.43;;;;;;;6.34;74.91;101085.56;4984482;28;20041;-79
2022/01/30 09:19:46;;;;;;;13.52;2.95;;;;;;;6.36;75.06;101088.94;4957711;28;20052;-79
2022/01/30 09:22:16;;;;;;;27.25;3.30;;;;;;;6.39;74.66;101102.00;4998842;28;20417;-79
2022/01/30 09:24:44;;;;;;;15.88;2.72;;;;;;;6.38;74.57;101105.56;4987836;28;20049;-80
2022/01/30 09:27:10;;;;;;;20.92;3.30;;;;;;;6.40;74.76;101101.06;5005128;28;20420;-79
2022/01/30 09:29:38;;;;;;;19.10;2.95;;;;;;;6.44;74.41;101100.00;4998790;28;20555;-79
2022/01/30 09:32:06;;;;;;;15.85;2.20;;;;;;;6.43;74.29;101107.03;4989757;28;20037;-79
2022/01/30 09:34:33;;;;;;;22.33;3.38;;;;;;;6.45;74.72;101109.59;4998225;28;20792;-80
2022/01/30 09:37:00;;;;;;;19.67;3.50;;;;;;;6.45;74.55;101114.88;5000255;28;20118;-79
2022/01/30 09:39:28;;;;;;;18.98;3.35;;;;;;;6.47;73.49;101116.50;4993838;28;20041;-84
2022/01/30 09:41:55;;;;;;;23.33;2.53;;;;;;;6.46;73.38;101127.13;5006344;28;20042;-84
2022/01/30 09:44:22;;;;;;;16.52;2.65;;;;;;;6.42;73.38;101121.16;5003083;28;20065;-84
2022/01/30 09:46:50;;;;;;;19.60;3.58;;;;;;;6.51;71.59;101133.03;5007106;28;20512;-84
2022/01/30 09:49:22;;;;;;;30.58;3.65;;;;;;;6.48;69.54;101134.03;4991564;28;20091;-84
2022/01/30 09:51:50;;;;;;;16.58;2.05;;;;;;;6.44;70.88;101144.84;4998679;28;20045;-84
2022/01/30 09:54:17;;;;;;;25.33;3.05;;;;;;;6.46;71.75;101130.66;4988620;28;20057;-84
2022/01/30 09:56:43;;;;;;;21.50;2.97;;;;;;;6.56;70.77;101138.06;5001470;28;20103;-84
2022/01/30 09:59:10;;;;;;;21.42;2.53;;;;;;;6.53;69.41;101141.72;5004601;28;20103;-84
2022/01/30 10:01:37;;;;;;;17.42;2.95;;;;;;;6.50;70.56;101157.72;5002323;28;20500;-84
2022/01/30 10:04:05;;;;;;;31.10;4.15;;;;;;;6.51;70.74;101154.13;5015651;28;20052;-84
2022/01/30 10:07:00;;;;;;;22.75;3.08;;;;;;;6.43;70.82;101149.25;5016894;28;20042;-84
2022/01/30 10:09:30;;;;;;;16.77;3.45;;;;;;;6.58;70.99;101146.78;4982497;28;20053;-83
2022/01/30 10:14:54;;;;;;;26.00;3.13;;;;;;;6.52;70.26;101142.66;5004617;28;20049;-84
2022/01/30 10:17:28;;;;;;;16.48;2.97;;;;;;;6.51;70.46;101147.09;4996632;28;20064;-84
2022/01/30 10:20:11;;;;;;;21.75;2.78;;;;;;;6.60;68.07;101148.41;5003135;28;20095;-84
2022/01/30 10:22:51;;;;;;;14.25;2.90;;;;;;;6.69;68.60;101141.78;5024867;28;20045;-82
2022/01/30 10:25:29;;;;;;;29.55;2.65;;;;;;;6.65;68.62;101140.25;4971900;28;20510;-84
2022/01/30 10:28:15;;;;;;;15.38;2.65;;;;;;;6.74;67.14;101151.19;4945509;28;20430;-84
2022/01/30 10:30:46;;;;;;;18.77;2.47;;;;;;;6.94;65.54;101150.13;4920505;28;20046;-84
2022/01/30 10:33:14;;;;;;;20.45;3.25;;;;;;;6.81;67.30;101149.06;4979104;28;20639;-84
2022/01/30 10:35:59;;;;;;;12.65;2.63;;;;;;;6.85;65.06;101155.91;4976861;28;20054;-84
2022/01/30 10:38:52;;;;;;;14.90;2.63;;;;;;;6.73;66.33;101149.47;4964159;28;20092;-84
2022/01/30 10:41:23;;;;;;;11.23;2.60;;;;;;;6.83;68.08;101149.84;4964259;28;20058;-84
2022/01/30 10:44:00;;;;;;;21.17;3.97;;;;;;;6.77;63.08;101150.19;4978559;28;20042;-84
2022/01/30 10:46:28;;;;;;;77.10;30.88;;;;;;;6.84;66.48;101145.44;4965338;28;20406;-84
2022/01/30 10:49:06;;;;;;;16.52;3.05;;;;;;;6.84;63.56;101148.06;4978521;28;20559;-84
2022/01/30 10:51:34;;;;;;;18.90;5.38;;;;;;;6.96;63.59;101137.72;4960950;28;20046;-84
2022/01/30 10:54:09;;;;;;;22.92;2.75;;;;;;;6.83;65.19;101146.38;4980184;28;20046;-84
2022/01/30 10:56:37;;;;;;;23.52;2.78;;;;;;;7.07;62.85;101155.66;4989804;28;20497;-83
2022/01/30 10:59:20;;;;;;;24.23;3.35;;;;;;;7.00;62.23;101150.78;5011800;28;22616;-84
2022/01/30 11:01:48;;;;;;;27.13;2.70;;;;;;;6.90;63.99;101138.06;5000903;28;20057;-84
2022/01/30 11:04:27;;;;;;;9.77;2.17;;;;;;;6.93;61.95;101144.97;4998517;28;20049;-84
2022/01/30 11:06:56;;;;;;;18.42;3.25;;;;;;;6.91;62.27;101146.81;5026889;28;21122;-84
2022/01/30 11:09:30;;;;;;;18.88;1.88;;;;;;;6.85;62.34;101137.44;5013752;28;20053;-84
2022/01/30 11:12:09;;;;;;;18.85;3.10;;;;;;;6.94;62.78;101141.38;4951434;28;20394;-83
2022/01/30 11:14:40;;;;;;;13.48;2.63;;;;;;;6.91;62.10;101139.75;5027059;28;20053;-82
2022/01/30 11:17:08;;;;;;;15.70;2.80;;;;;;;6.87;62.35;101142.63;5006183;28;20065;-83
2022/01/30 11:19:40;;;;;;;11.00;1.77;;;;;;;6.92;61.24;101138.84;5001718;28;20052;-83
2022/01/30 11:22:08;;;;;;;18.20;2.70;;;;;;;7.01;59.70;101142.75;5003410;28;20109;-83
2022/01/30 11:24:44;;;;;;;20.90;2.60;;;;;;;6.88;61.78;101145.19;5016601;28;20049;-81
2022/01/30 11:27:11;;;;;;;13.10;2.45;;;;;;;6.91;61.90;101142.38;4999504;28;20045;-84
2022/01/30 11:29:38;;;;;;;18.52;2.35;;;;;;;6.95;61.19;101143.09;5000464;28;20054;-82
2022/01/30 11:32:06;;;;;;;11.45;2.00;;;;;;;6.95;61.28;101143.94;4998560;28;20111;-84
2022/01/30 11:34:38;;;;;;;21.85;2.95;;;;;;;6.90;61.43;101153.03;5011450;28;20041;-83
2022/01/30 11:37:06;;;;;;;20.08;2.60;;;;;;;6.91;62.46;101145.03;4968675;28;20048;-83
2022/01/30 11:39:33;;;;;;;17.35;2.70;;;;;;;6.98;62.26;101127.09;5004720;28;20048;-83
2022/01/30 11:42:23;;;;;;;12.10;2.13;;;;;;;6.89;61.97;101133.69;4997911;28;20045;-81
2022/01/30 11:44:59;;;;;;;14.05;2.65;;;;;;;6.90;62.86;101129.28;5004269;28;20116;-84
2022/01/30 11:47:51;;;;;;;13.43;1.95;;;;;;;7.00;60.94;101129.66;4972231;28;20382;-84
2022/01/30 11:50:29;;;;;;;16.45;2.40;;;;;;;6.96;61.25;101132.44;5005356;28;20053;-84
2022/01/30 11:52:58;;;;;;;21.83;3.08;;;;;;;6.93;61.57;101131.75;4997561;28;20071;-84
2022/01/30 11:55:43;;;;;;;21.08;3.53;;;;;;;6.77;61.93;101126.44;4983181;28;20042;-84
2022/01/30 11:58:46;;;;;;;18.98;2.70;;;;;;;6.74;61.41;101119.53;5032217;28;20042;-84
2022/01/30 12:01:24;;;;;;;36.58;16.10;;;;;;;6.78;60.82;101119.34;4931822;28;20052;-81
2022/01/30 12:03:53;;;;;;;17.45;2.88;;;;;;;6.90;59.49;101111.66;5003838;28;20045;-80
2022/01/30 12:06:20;;;;;;;20.38;5.00;;;;;;;6.79;61.91;101118.41;4990194;28;20053;-79
2022/01/30 12:08:50;;;;;;;11.98;2.80;;;;;;;6.78;62.53;101124.63;5005981;28;20100;-79
2022/01/30 12:11:34;;;;;;;15.15;3.17;;;;;;;6.69;62.63;101118.91;5001012;28;20052;-80
2022/01/30 12:14:10;;;;;;;17.10;3.72;;;;;;;6.84;63.27;101121.66;5027298;28;20054;-79
2022/01/30 12:16:57;;;;;;;19.35;2.25;;;;;;;6.82;63.73;101118.25;4963129;28;20452;-79
2022/01/30 12:19:45;;;;;;;37.13;3.20;;;;;;;6.86;60.47;101130.38;5001659;28;20136;-79
2022/01/30 12:22:18;;;;;;;14.18;3.20;;;;;;;6.98;61.40;101126.25;4962926;28;20046;-79
2022/01/30 12:25:13;;;;;;;10.80;2.47;;;;;;;7.02;62.38;101123.38;4982855;28;20485;-79
2022/01/30 12:27:50;;;;;;;18.75;3.42;;;;;;;7.10;63.07;101131.72;4962481;28;20041;-79
2022/01/30 12:30:37;;;;;;;22.58;2.03;;;;;;;7.15;62.96;101124.41;4959581;28;20576;-78
2022/01/30 12:33:30;;;;;;;13.32;3.15;;;;;;;7.17;62.54;101116.38;4990061;28;20046;-78
2022/01/30 12:35:58;;;;;;;14.20;3.03;;;;;;;7.29;60.97;101122.81;4966723;28;20437;-79
2022/01/30 12:38:34;;;;;;;13.30;2.05;;;;;;;7.28;59.89;101121.09;4980731;28;20050;-78
2022/01/30 12:41:18;;;;;;;13.43;3.10;;;;;;;7.21;62.36;101106.53;4966944;28;20073;-78
2022/01/30 12:43:46;;;;;;;18.33;3.85;;;;;;;7.31;61.14;101113.84;4975463;28;20046;-78
2022/01/30 12:46:13;;;;;;;16.38;2.67;;;;;;;7.19;62.00;101119.78;4980947;28;20188;-78
2022/01/30 12:48:41;;;;;;;11.20;1.77;;;;;;;7.19;61.56;101125.09;4974983;28;20073;-78
2022/01/30 12:51:13;;;;;;;19.60;3.25;;;;;;;7.18;62.06;101126.88;4964577;28;20436;-79
2022/01/30 12:53:42;;;;;;;13.73;2.65;;;;;;;7.11;60.57;101117.56;4975953;28;20049;-79